Time;durP1;ratioP1;P1;durP2;ratioP2;P2;SDS_P1;SDS_P2;PMS_P1;PMS_P2;Temp;Humidity;BMP_temperature;BMP_pressure;BME280_temperature;BME280_humidity;BME280_pressure;Samples;Min_cycle;Max_cycle;Signal;HPM_P1;HPM_P2
2021/10/28 00:13:37;;;;;;;30.98;11.02;;;;;;;;;;5115458;28;20191;-63
2021/10/28 00:16:11;;;;;;;22.80;10.10;;;;;;;;;;5115231;28;20239;-63
2021/10/28 00:19:06;;;;;;;16.42;10.00;;;;;;;;;;5115558;28;20242;-63
2021/10/28 00:21:36;;;;;;;22.15;10.55;;;;;;;;;;5114914;28;20188;-63
2021/10/28 00:24:07;;;;;;;23.55;10.98;;;;;;;;;;5115428;28;20196;-63
2021/10/28 00:26:36;;;;;;;18.75;11.48;;;;;;;;;;5115068;28;20193;-64
2021/10/28 00:29:07;;;;;;;32.33;11.57;;;;;;;;;;5115417;28;20196;-63
2021/10/28 00:31:39;;;;;;;18.42;10.70;;;;;;;;;;5114734;28;20670;-64
2021/10/28 00:34:07;;;;;;;28.55;11.60;;;;;;;;;;5115221;28;20223;-64
2021/10/28 00:36:40;;;;;;;21.95;11.98;;;;;;;;;;5114513;28;20188;-63
2021/10/28 00:39:17;;;;;;;35.60;11.65;;;;;;;;;;5115358;28;20220;-64
2021/10/28 00:41:46;;;;;;;21.85;11.88;;;;;;;;;;5115346;28;20188;-63
2021/10/28 00:44:27;;;;;;;16.40;10.75;;;;;;;;;;5115351;28;20570;-63
2021/10/28 00:47:08;;;;;;;19.42;11.55;;;;;;;;;;5114886;28;20235;-63
2021/10/28 00:49:39;;;;;;;19.67;11.63;;;;;;;;;;5115221;28;20199;-64
2021/10/28 00:52:09;;;;;;;28.70;11.95;;;;;;;;;;5114692;28;20181;-63
2021/10/28 00:54:57;;;;;;;29.35;11.25;;;;;;;;;;5115011;28;20254;-63
2021/10/28 00:57:28;;;;;;;17.30;10.63;;;;;;;;;;5094392;28;20601;-63
2021/10/28 00:59:59;;;;;;;34.35;11.93;;;;;;;;;;5094588;28;20193;-64
2021/10/28 01:02:29;;;;;;;36.63;11.95;;;;;;;;;;5115049;28;20268;-63
2021/10/28 01:04:57;;;;;;;21.45;11.70;;;;;;;;;;5114748;28;20920;-63
2021/10/28 01:07:34;;;;;;;13.45;9.93;;;;;;;;;;5094026;28;20528;-63
2021/10/28 01:10:04;;;;;;;16.85;10.77;;;;;;;;;;5094484;28;20279;-65
2021/10/28 01:12:32;;;;;;;23.75;10.38;;;;;;;;;;5114386;28;20267;-63
2021/10/28 01:15:16;;;;;;;16.35;10.43;;;;;;;;;;5114408;28;20303;-63
2021/10/28 01:17:44;;;;;;;16.27;10.63;;;;;;;;;;5114538;28;20312;-63
2021/10/28 01:20:15;;;;;;;15.13;9.65;;;;;;;;;;5114549;28;20250;-63
2021/10/28 01:22:46;;;;;;;21.73;11.52;;;;;;;;;;5114126;28;20198;-64
2021/10/28 01:25:14;;;;;;;20.05;11.98;;;;;;;;;;5094948;28;20225;-63
2021/10/28 01:27:42;;;;;;;14.70;10.15;;;;;;;;;;5114733;28;20567;-63
2021/10/28 01:30:10;;;;;;;13.93;8.65;;;;;;;;;;5114129;28;20180;-63
2021/10/28 01:32:38;;;;;;;17.17;9.18;;;;;;;;;;5114318;28;20279;-63
2021/10/28 01:35:06;;;;;;;10.63;8.65;;;;;;;;;;5113743;28;20188;-63
2021/10/28 01:37:43;;;;;;;11.88;8.70;;;;;;;;;;5113513;28;20200;-63
2021/10/28 01:40:19;;;;;;;14.00;8.57;;;;;;;;;;5114119;28;20653;-63
2021/10/28 01:42:48;;;;;;;15.45;9.75;;;;;;;;;;5113732;28;20280;-64
2021/10/28 01:45:16;;;;;;;15.15;9.40;;;;;;;;;;5113731;28;20224;-66
2021/10/28 01:47:49;;;;;;;12.13;8.98;;;;;;;;;;5093763;28;20652;-63
2021/10/28 01:50:19;;;;;;;15.00;10.68;;;;;;;;;;5093670;28;20196;-63
2021/10/28 01:52:54;;;;;;;12.80;8.88;;;;;;;;;;5113628;28;20623;-63
2021/10/28 01:55:22;;;;;;;13.02;9.50;;;;;;;;;;5113862;28;20604;-64
2021/10/28 01:57:53;;;;;;;11.93;9.25;;;;;;;;;;5113707;28;20212;-63
2021/10/28 02:00:24;;;;;;;12.35;9.40;;;;;;;;;;5113790;28;20276;-64
2021/10/28 02:02:56;;;;;;;12.38;9.20;;;;;;;;;;5113493;28;20206;-64
2021/10/28 02:05:27;;;;;;;13.07;10.63;;;;;;;;;;5113800;28;20558;-63
2021/10/28 02:07:59;;;;;;;14.85;11.05;;;;;;;;;;5113390;28;20200;-64
2021/10/28 02:10:45;;;;;;;12.45;9.77;;;;;;;;;;5113364;28;20288;-64
2021/10/28 02:13:18;;;;;;;12.48;10.30;;;;;;;;;;5093275;28;20195;-64
2021/10/28 02:15:48;;;;;;;13.52;10.82;;;;;;;;;;5093718;28;20628;-63
2021/10/28 02:18:24;;;;;;;12.40;9.60;;;;;;;;;;5113331;28;20695;-63
2021/10/28 02:21:01;;;;;;;13.80;10.40;;;;;;;;;;5112859;28;20654;-64
2021/10/28 02:23:33;;;;;;;13.00;10.25;;;;;;;;;;5113405;28;20259;-63
2021/10/28 02:26:09;;;;;;;10.43;9.15;;;;;;;;;;5112574;28;20176;-64
2021/10/28 02:28:44;;;;;;;13.27;10.52;;;;;;;;;;5113111;28;20586;-63
2021/10/28 02:31:12;;;;;;;11.40;8.77;;;;;;;;;;5112830;28;20184;-63
2021/10/28 02:33:42;;;;;;;11.55;9.45;;;;;;;;;;5113037;28;20196;-64
2021/10/28 02:36:12;;;;;;;11.52;9.98;;;;;;;;;;5112260;28;20203;-63
2021/10/28 02:38:48;;;;;;;10.52;9.32;;;;;;;;;;5112996;28;20573;-63
2021/10/28 02:41:19;;;;;;;11.13;9.55;;;;;;;;;;5112668;28;20227;-63
2021/10/28 02:43:47;;;;;;;10.32;9.18;;;;;;;;;;5112813;28;20192;-63
2021/10/28 02:46:15;;;;;;;10.95;9.82;;;;;;;;;;5112457;28;20657;-64
2021/10/28 02:48:47;;;;;;;11.45;9.88;;;;;;;;;;5112915;28;20192;-64
2021/10/28 02:51:18;;;;;;;13.63;10.30;;;;;;;;;;5111625;28;20211;-63
2021/10/28 02:53:51;;;;;;;12.57;10.27;;;;;;;;;;5113132;28;20184;-63
2021/10/28 02:56:19;;;;;;;13.60;10.32;;;;;;;;;;5112430;28;20195;-63
2021/10/28 02:58:49;;;;;;;13.95;10.40;;;;;;;;;;5111762;28;20311;-63
2021/10/28 03:01:31;;;;;;;11.75;9.65;;;;;;;;;;5112868;28;20520;-63
2021/10/28 03:03:59;;;;;;;12.48;9.63;;;;;;;;;;5112700;28;20614;-63
2021/10/28 03:06:27;;;;;;;13.75;11.00;;;;;;;;;;5111957;28;20184;-63
2021/10/28 03:09:07;;;;;;;10.77;9.63;;;;;;;;;;5112548;28;20187;-63
2021/10/28 03:11:47;;;;;;;12.05;9.48;;;;;;;;;;5112218;28;20184;-63
2021/10/28 03:14:30;;;;;;;11.55;9.98;;;;;;;;;;5112753;28;20245;-63
2021/10/28 03:17:02;;;;;;;11.70;9.88;;;;;;;;;;5112277;28;20191;-63
2021/10/28 03:19:44;;;;;;;11.05;9.60;;;;;;;;;;5112562;28;20586;-64
2021/10/28 03:28:02;;;;;;;13.40;9.95;;;;;;;;;;5096228;28;20600;-63
2021/10/28 03:30:36;;;;;;;16.33;12.30;;;;;;;;;;5112270;28;20706;-63
2021/10/28 03:33:10;;;;;;;10.95;9.20;;;;;;;;;;5111948;28;20237;-63
2021/10/28 03:35:46;;;;;;;12.80;9.30;;;;;;;;;;5112038;28;20256;-63
2021/10/28 03:38:19;;;;;;;13.73;10.90;;;;;;;;;;5112751;28;20554;-63
2021/10/28 04:01:14;;;;;;;18.98;10.90;;;;;;;;;;5070743;28;20360;-64
2021/10/28 04:07:03;;;;;;;15.88;10.75;;;;;;;;;;5115601;28;20192;-63
2021/10/28 04:18:30;;;;;;;13.18;9.82;;;;;;;;;;5115596;28;20203;-63
2021/10/28 04:29:53;;;;;;;14.15;8.77;;;;;;;;;;5151353;27;20184;-63
2021/10/28 04:32:21;;;;;;;13.15;9.98;;;;;;;;;;5131888;27;20222;-64
2021/10/28 04:34:53;;;;;;;11.13;9.10;;;;;;;;;;5130917;27;20708;-63
2021/10/28 04:37:21;;;;;;;17.98;10.15;;;;;;;;;;5149311;27;20187;-64
2021/10/28 04:39:50;;;;;;;9.65;8.52;;;;;;;;;;5151308;27;20633;-63
2021/10/28 04:42:22;;;;;;;13.98;10.45;;;;;;;;;;5133099;27;20212;-64
2021/10/28 04:44:49;;;;;;;20.85;10.00;;;;;;;;;;5130591;27;20271;-68
2021/10/28 04:47:17;;;;;;;22.00;9.00;;;;;;;;;;5131675;27;20184;-63
2021/10/28 04:49:50;;;;;;;14.65;8.98;;;;;;;;;;5130859;27;20187;-63
2021/10/28 04:52:21;;;;;;;16.58;8.98;;;;;;;;;;5143855;27;20286;-64
2021/10/28 04:54:50;;;;;;;10.85;8.38;;;;;;;;;;5135676;27;20188;-64
2021/10/28 04:57:18;;;;;;;15.65;9.95;;;;;;;;;;5130316;27;20661;-64
2021/10/28 04:59:46;;;;;;;17.40;10.32;;;;;;;;;;5136683;27;20222;-64
2021/10/28 05:02:13;;;;;;;13.23;9.63;;;;;;;;;;5151012;27;20215;-64
2021/10/28 05:04:41;;;;;;;10.68;8.45;;;;;;;;;;5145574;27;20192;-63
2021/10/28 05:07:11;;;;;;;14.45;9.15;;;;;;;;;;5129821;27;20809;-63
2021/10/28 05:09:40;;;;;;;13.50;9.43;;;;;;;;;;5133756;27;20183;-63
2021/10/28 05:12:10;;;;;;;11.35;8.68;;;;;;;;;;5150942;27;20190;-63
2021/10/28 05:14:40;;;;;;;10.27;8.07;;;;;;;;;;5134641;27;20241;-63
2021/10/28 05:17:09;;;;;;;30.00;8.40;;;;;;;;;;5130132;27;20275;-64
2021/10/28 05:19:38;;;;;;;10.75;8.02;;;;;;;;;;5140345;27;20187;-64
2021/10/28 05:22:06;;;;;;;11.40;8.27;;;;;;;;;;5136135;27;20215;-63
2021/10/28 05:24:34;;;;;;;10.38;7.85;;;;;;;;;;5150425;27;20614;-63
2021/10/28 05:27:02;;;;;;;12.00;8.68;;;;;;;;;;5152451;27;20188;-64
2021/10/28 05:29:31;;;;;;;9.40;8.38;;;;;;;;;;5150515;27;20203;-63
2021/10/28 05:31:58;;;;;;;18.42;8.18;;;;;;;;;;5151205;27;20274;-63
2021/10/28 05:34:26;;;;;;;10.60;7.80;;;;;;;;;;5141025;27;20244;-64
2021/10/28 05:36:54;;;;;;;9.73;8.55;;;;;;;;;;5151783;27;20586;-63
2021/10/28 05:39:21;;;;;;;14.20;8.18;;;;;;;;;;5156858;27;20256;-64
2021/10/28 05:41:49;;;;;;;12.10;7.40;;;;;;;;;;5136217;27;20191;-64
2021/10/28 05:44:16;;;;;;;12.48;7.75;;;;;;;;;;5136618;27;20199;-64
2021/10/28 05:46:45;;;;;;;16.08;9.07;;;;;;;;;;5136833;27;20198;-63
2021/10/28 05:49:12;;;;;;;25.73;9.20;;;;;;;;;;5147103;27;20561;-63
2021/10/28 05:51:40;;;;;;;13.52;7.88;;;;;;;;;;5157674;27;20267;-64
2021/10/28 05:54:07;;;;;;;16.60;7.90;;;;;;;;;;5156872;27;20191;-64
2021/10/28 05:56:35;;;;;;;15.75;8.02;;;;;;;;;;5140942;27;20190;-63
2021/10/28 05:59:02;;;;;;;9.23;7.97;;;;;;;;;;5143056;27;20196;-63
2021/10/28 06:01:30;;;;;;;10.70;7.00;;;;;;;;;;5131561;27;20237;-63
2021/10/28 06:03:58;;;;;;;13.10;8.40;;;;;;;;;;5151107;27;20515;-63
2021/10/28 06:06:26;;;;;;;10.05;7.22;;;;;;;;;;5153750;27;20229;-65
2021/10/28 06:08:53;;;;;;;13.52;8.02;;;;;;;;;;5151988;27;20219;-64
2021/10/28 06:11:20;;;;;;;12.82;9.10;;;;;;;;;;5135430;27;20244;-64
2021/10/28 06:13:49;;;;;;;10.90;9.45;;;;;;;;;;5136318;27;20283;-63
2021/10/28 06:16:16;;;;;;;10.93;7.45;;;;;;;;;;5150717;27;20671;-64
2021/10/28 06:18:46;;;;;;;10.02;6.47;;;;;;;;;;5134587;27;20239;-63
2021/10/28 06:21:17;;;;;;;8.05;5.93;;;;;;;;;;5137251;27;20240;-66
2021/10/28 06:23:45;;;;;;;18.48;6.93;;;;;;;;;;5132569;27;20227;-63
2021/10/28 06:26:13;;;;;;;19.45;7.13;;;;;;;;;;5135996;27;20183;-62
2021/10/28 06:28:41;;;;;;;13.20;6.10;;;;;;;;;;5142457;27;20191;-63
2021/10/28 06:31:08;;;;;;;22.85;8.15;;;;;;;;;;5144661;27;20183;-64
2021/10/28 06:33:38;;;;;;;45.00;8.85;;;;;;;;;;5156739;27;20201;-64
2021/10/28 06:36:05;;;;;;;11.70;8.05;;;;;;;;;;5155900;27;20229;-64
2021/10/28 06:38:35;;;;;;;24.58;8.90;;;;;;;;;;5156194;27;20191;-64
2021/10/28 06:41:03;;;;;;;7.97;6.43;;;;;;;;;;5155794;27;20191;-63
2021/10/28 06:43:31;;;;;;;18.75;5.93;;;;;;;;;;5155449;27;20636;-64
2021/10/28 06:45:59;;;;;;;21.48;6.20;;;;;;;;;;5155176;27;20241;-63
2021/10/28 06:48:27;;;;;;;12.48;5.40;;;;;;;;;;5156327;27;20270;-64
2021/10/28 06:50:56;;;;;;;18.17;5.88;;;;;;;;;;5142595;27;20278;-63
2021/10/28 06:53:26;;;;;;;25.90;6.40;;;;;;;;;;5135527;27;20278;-64
2021/10/28 06:56:03;;;;;;;19.55;6.53;;;;;;;;;;5135364;27;20234;-64
2021/10/28 07:04:01;;;;;;;9.10;5.47;;;;;;;;;;5135361;27;20218;-63
2021/10/28 07:06:29;;;;;;;8.38;6.00;;;;;;;;;;5135278;27;20244;-64
2021/10/28 07:09:01;;;;;;;20.30;5.53;;;;;;;;;;5135284;27;20548;-64
2021/10/28 07:11:33;;;;;;;7.00;5.70;;;;;;;;;;5134872;27;20219;-63
2021/10/28 07:14:04;;;;;;;8.52;5.88;;;;;;;;;;5135316;27;20642;-64
2021/10/28 07:16:39;;;;;;;10.88;4.45;;;;;;;;;;5135084;27;20244;-64
2021/10/28 07:19:18;;;;;;;5.32;4.32;;;;;;;;;;5132027;27;20210;-64
2021/10/28 07:22:06;;;;;;;6.30;4.10;;;;;;;;;;5130626;27;20192;-63
2021/10/28 07:30:25;;;;;;;9.23;5.45;;;;;;;;;;5123354;27;20204;-63
2021/10/28 07:55:09;;;;;;;15.80;11.75;;;;;;;;;;5139340;27;20225;-63
2021/10/28 07:57:48;;;;;;;23.05;16.20;;;;;;;;;;5142859;27;20202;-63
2021/10/28 08:19:46;;;;;;;4.05;3.65;;;;;;;;;;5136115;27;20186;-63
2021/10/28 08:22:18;;;;;;;6.47;4.93;;;;;;;;;;5136902;27;20272;-64
2021/10/28 08:30:17;;;;;;;4.15;3.70;;;;;;;;;;5133841;27;20248;-64
2021/10/28 08:32:46;;;;;;;5.80;3.10;;;;;;;;;;5141540;27;20190;-63
2021/10/28 08:35:14;;;;;;;4.05;3.35;;;14.00;48.60;;;;;;5136247;27;20222;-64
2021/10/28 08:37:45;;;;;;;4.28;3.78;;;16.30;52.70;;;;;;5135883;27;20657;-63
2021/10/28 08:40:14;;;;;;;5.30;4.00;;;18.10;44.80;;;;;;5132396;27;20196;-64
2021/10/28 08:42:42;;;;;;;16.93;4.00;;;19.30;41.10;;;;;;5135909;27;20484;-64
2021/10/28 08:45:13;;;;;;;4.10;3.70;;;20.90;38.20;;;;;;5141537;27;20472;-64
2021/10/28 08:47:46;;;;;;;4.97;4.47;;;22.80;36.40;;;;;;5140398;27;20441;-65
2021/10/28 08:50:20;;;;;;;7.35;3.55;;;25.00;32.80;;;;;;5135080;27;20531;-64
2021/10/28 08:53:05;;;;;;;5.10;4.60;;;27.10;30.50;;;;;;5134524;27;20195;-64
2021/10/28 08:55:33;;;;;;;5.03;4.50;;;27.70;27.50;;;;;;5137402;27;20437;-65
2021/10/28 09:26:38;;;;;;;5.57;2.97;;;29.10;26.20;;;;;;5135652;27;20922;-64
2021/10/28 09:29:14;;;;;;;2.97;2.67;;;30.70;22.40;;;;;;5133591;27;20476;-65
2021/10/28 09:31:51;;;;;;;4.33;3.00;;;32.50;22.20;;;;;;5123682;27;20445;-65
2021/10/28 09:34:30;;;;;;;3.20;2.77;;;34.30;19.90;;;;;;5115927;27;20805;-66
2021/10/28 09:46:08;;;;;;;3.43;2.80;;;38.70;15.50;;;;;;5140463;27;20194;-64
2021/10/28 09:49:47;;;;;;;2.80;2.50;;;39.70;14.80;;;;;;5138094;27;20475;-64
2021/10/28 09:51:37;;;;;;;3.17;2.87;;;40.40;14.30;;;;;;5147448;27;20195;-63
2021/10/28 09:54:10;;;;;;;3.10;2.80;;;41.20;13.70;;;;;;5145446;27;20461;-63
2021/10/28 09:59:26;;;;;;;3.10;2.80;;;42.10;12.80;;;;;;5150390;27;20408;-63
2021/10/28 10:01:59;;;;;;;3.53;2.53;;;43.00;12.20;;;;;;5147022;27;20516;-64
2021/10/28 10:04:29;;;;;;;3.03;2.67;;;43.60;12.10;;;;;;5143567;27;20480;-63
2021/10/28 10:06:56;;;;;;;3.30;2.30;;;44.30;11.70;;;;;;5143227;27;20942;-63
2021/10/28 10:09:24;;;;;;;2.73;2.47;;;44.90;11.40;;;;;;5149350;27;20437;-64
2021/10/28 10:11:53;;;;;;;2.57;2.30;;;45.40;10.80;;;;;;5145359;27;20986;-63
2021/10/28 10:14:21;;;;;;;2.83;2.13;;;45.70;10.50;;;;;;5145280;27;20454;-64
2021/10/28 10:16:49;;;;;;;2.50;2.20;;;45.70;10.40;;;;;;5146404;27;20472;-64
2021/10/28 10:19:17;;;;;;;3.53;2.40;;;45.50;10.30;;;;;;5148022;27;20437;-64
2021/10/28 10:21:47;;;;;;;5.30;2.27;;;46.00;10.10;;;;;;5140492;27;20442;-64
2021/10/28 10:24:20;;;;;;;2.40;2.17;;;46.30;10.00;;;;;;5148103;27;20463;-64
2021/10/28 11:31:58;;;;;;;2.80;2.40;;;;;;;;;;5068870;27;20568;-65
2021/10/28 12:16:46;;;;;;;7.20;3.20;;;48.90;7.40;;;;;;5068083;28;20467;-66
2021/10/28 12:45:11;;;;;;;3.33;3.03;;;45.50;9.50;;;;;;5051305;28;20436;-66
2021/10/28 12:50:51;;;;;;;5.80;3.73;;;44.20;9.90;;;;;;5052839;28;20479;-66
2021/10/28 13:02:41;;;;;;;4.23;2.83;;;41.00;11.10;;;;;;5053708;28;20957;-67
2021/10/28 13:36:05;;;;;;;3.80;2.20;;;;;;;;;;5053216;28;20425;-65
2021/10/28 13:49:59;;;;;;;4.47;2.90;;;;;;;;;;5051512;28;20476;-65
2021/10/28 13:55:36;;;;;;;3.70;2.70;;;;;;;;;;5048211;28;20441;-64
2021/10/28 13:58:19;;;;;;;3.20;2.20;;;;;;;;;;5052584;28;20436;-64
2021/10/28 14:23:20;;;;;;;10.47;2.70;;;;;;;;;;5051943;28;20436;-65
2021/10/28 15:29:26;;;;;;;5.47;4.43;;;;;;;;;;5051286;28;20527;-64
2021/10/28 15:35:07;;;;;;;6.60;3.13;;;;;;;;;;4989296;28;20475;-65
2021/10/28 15:40:21;;;;;;;7.20;4.23;;;;;;;;;;5023792;28;20477;-64
2021/10/28 15:54:36;;;;;;;7.80;5.67;;;;;;;;;;5141144;27;20481;-62
2021/10/28 15:57:18;;;;;;;7.40;6.03;;;;;;;;;;5141099;27;20524;-62
2021/10/28 16:00:14;;;;;;;14.97;8.37;;;;;;;;;;5137840;27;20513;-63
2021/10/28 16:21:55;;;;;;;9.10;7.13;;;;;;;;;;5136374;27;20432;-64
2021/10/28 16:24:25;;;;;;;10.90;7.83;;;;;;;;;;5142189;27;20449;-64
2021/10/28 16:26:53;;;;;;;9.33;7.50;;;;;;;;;;5139163;27;20536;-64
2021/10/28 16:29:21;;;;;;;9.23;7.40;;;;;;;;;;5141665;27;20515;-64
2021/10/28 16:31:49;;;;;;;19.20;14.90;;;;;;;;;;5139572;27;20445;-64
2021/10/28 16:34:16;;;;;;;13.20;10.47;;;;;;;;;;5132560;27;20482;-64
2021/10/28 16:36:44;;;;;;;16.80;14.10;;;;;;;;;;5131554;27;20491;-64
2021/10/28 16:39:13;;;;;;;12.53;10.73;;;;;;;;;;5136023;27;20464;-64
2021/10/28 16:41:43;;;;;;;14.93;13.33;;;;;;;;;;5135887;27;20433;-64
2021/10/28 16:44:10;;;;;;;16.10;13.27;;;;;;;;;;5135407;27;20920;-64
2021/10/28 16:46:38;;;;;;;15.05;12.15;;;;;;;;;;5133135;27;20207;-64
2021/10/28 16:49:06;;;;;;;17.65;11.40;;;;;;;;;;5132816;27;20228;-64
2021/10/28 16:51:33;;;;;;;8.90;7.72;;;;;;;;;;5137540;27;20211;-64
2021/10/28 16:54:01;;;;;;;12.95;10.30;;;;;;;;;;5132552;27;20188;-63
2021/10/28 16:56:29;;;;;;;14.35;10.43;;;;;;;;;;5132407;27;20197;-63
2021/10/28 16:58:57;;;;;;;15.20;12.65;;;;;;;;;;5131178;27;20195;-63
2021/10/28 17:01:25;;;;;;;17.55;12.85;;;;;;;;;;5121173;27;20706;-64
2021/10/28 17:03:52;;;;;;;12.90;11.60;;;;;;;;;;5115277;27;20635;-64
2021/10/28 17:06:21;;;;;;;11.73;9.20;;;;;;;;;;5119138;27;20203;-64
2021/10/28 17:08:48;;;;;;;13.40;9.35;;;;;;;;;;5118841;27;20193;-63
2021/10/28 17:11:19;;;;;;;18.40;13.27;;;;;;;;;;5116391;27;20266;-62
2021/10/28 17:13:47;;;;;;;16.40;12.23;;;;;;;;;;5115787;27;20314;-63
2021/10/28 17:16:16;;;;;;;11.80;9.68;;;;;;;;;;5118722;27;20600;-63
2021/10/28 17:18:43;;;;;;;11.90;9.77;;;;;;;;;;5115032;27;20261;-64
2021/10/28 17:21:10;;;;;;;11.32;9.90;;;;;;;;;;5116927;27;20630;-64
2021/10/28 17:23:40;;;;;;;16.83;12.00;;;;;;;;;;5136625;27;20549;-64
2021/10/28 17:26:10;;;;;;;15.05;10.85;;;;;;;;;;5136152;27;20192;-64
2021/10/28 17:28:38;;;;;;;10.48;9.13;;;;;;;;;;5136080;27;20207;-63
2021/10/28 17:31:08;;;;;;;9.68;8.68;;;;;;;;;;5136301;27;20216;-63
2021/10/28 17:33:36;;;;;;;14.80;11.43;;;;;;;;;;5136440;27;20202;-63
2021/10/28 17:36:04;;;;;;;21.75;17.88;;;;;;;;;;5136010;27;20192;-64
2021/10/28 17:38:32;;;;;;;21.85;17.10;;;;;;;;;;5136539;27;20192;-63
2021/10/28 17:40:59;;;;;;;21.30;16.90;;;;;;;;;;5117129;27;20598;-64
2021/10/28 17:43:29;;;;;;;18.02;14.90;;;;;;;;;;5116702;27;20215;-64
2021/10/28 17:45:57;;;;;;;21.55;16.63;;;;;;;;;;5116647;27;20537;-64
2021/10/28 17:48:26;;;;;;;22.13;18.20;;;;;;;;;;5115089;27;20194;-64
2021/10/28 17:50:55;;;;;;;20.27;15.82;;;;;;;;;;5116224;27;20675;-64
2021/10/28 17:53:22;;;;;;;22.48;17.42;;;;;;;;;;5114091;27;20551;-65
2021/10/28 17:55:50;;;;;;;19.00;13.63;;;;;;;;;;5114373;27;20197;-64
2021/10/28 17:58:17;;;;;;;15.15;11.82;;;;;;;;;;5114084;27;20197;-64
2021/10/28 18:00:44;;;;;;;13.57;9.77;;;;;;;;;;5113807;27;20266;-64
2021/10/28 18:03:12;;;;;;;12.95;8.30;;;;;;;;;;5101584;27;20193;-64
2021/10/28 18:05:40;;;;;;;14.68;9.55;;;;;;;;;;5101660;28;20185;-64
2021/10/28 18:08:09;;;;;;;15.82;12.50;;;;;;;;;;5093810;27;20190;-64
2021/10/28 18:10:36;;;;;;;18.05;14.82;;;;;;;;;;5105528;28;20216;-64
2021/10/28 18:13:04;;;;;;;17.65;13.20;;;;;;;;;;5114919;27;20216;-64
2021/10/28 18:15:32;;;;;;;19.48;15.40;;;;;;;;;;5124196;27;20197;-64
2021/10/28 18:17:59;;;;;;;14.48;10.93;;;;;;;;;;5120259;27;20623;-63
2021/10/28 18:20:27;;;;;;;13.38;10.50;;;;;;;;;;5121853;27;20283;-64
2021/10/28 18:22:54;;;;;;;14.63;11.70;;;;;;;;;;5115648;27;20193;-64
2021/10/28 18:25:24;;;;;;;15.82;12.45;;;;;;;;;;5114973;28;20512;-65
2021/10/28 18:27:55;;;;;;;19.25;12.93;;;;;;;;;;5114832;28;20560;-64
2021/10/28 18:30:23;;;;;;;14.23;12.10;;;;;;;;;;5114242;28;20698;-64
2021/10/28 18:32:50;;;;;;;16.98;12.45;;;;;;;;;;5114761;28;20197;-64
2021/10/28 18:35:18;;;;;;;17.20;12.10;;;;;;;;;;5115047;28;20328;-65
2021/10/28 18:37:45;;;;;;;17.50;13.57;;;;;;;;;;5114777;28;20214;-64
2021/10/28 18:40:13;;;;;;;16.85;12.38;;;;;;;;;;5114603;28;20227;-64
2021/10/28 18:42:42;;;;;;;23.65;15.98;;;;;;;;;;5114681;28;20249;-64
2021/10/28 18:45:10;;;;;;;20.73;13.65;;;;;;;;;;5114614;28;20192;-64
2021/10/28 18:47:37;;;;;;;19.20;12.85;;;;;;;;;;5114501;28;20189;-64
2021/10/28 18:50:06;;;;;;;24.65;14.65;;;;;;;;;;5114544;27;20226;-64
2021/10/28 18:52:33;;;;;;;21.52;13.32;;;;;;;;;;5133260;27;20188;-64
2021/10/28 18:55:01;;;;;;;16.90;12.60;;;;;;;;;;5118264;27;20604;-64
2021/10/28 18:57:29;;;;;;;15.50;11.65;;;;;;;;;;5113682;28;20188;-64
2021/10/28 18:59:58;;;;;;;13.40;10.27;;;;;;;;;;5114495;27;20215;-64
2021/10/28 19:02:28;;;;;;;12.57;10.15;;;;;;;;;;5098336;27;20202;-63
2021/10/28 19:04:55;;;;;;;18.48;16.48;;;;;;;;;;5092691;28;20186;-65
2021/10/28 19:07:23;;;;;;;22.33;16.85;;;;;;;;;;5097525;28;20193;-64
2021/10/28 19:09:50;;;;;;;16.50;12.98;;;;;;;;;;5092988;28;20228;-63
2021/10/28 19:12:18;;;;;;;15.15;12.48;;;;;;;;;;5104677;27;20220;-63
2021/10/28 19:14:45;;;;;;;20.50;15.07;;;;;;;;;;5110620;28;20190;-65
2021/10/28 19:17:14;;;;;;;17.80;12.02;;;;;;;;;;5109552;27;20199;-63
2021/10/28 19:19:42;;;;;;;14.80;11.07;;;;;;;;;;5092809;28;21065;-63
2021/10/28 19:22:09;;;;;;;13.75;7.80;;;;;;;;;;5093442;27;20185;-63
2021/10/28 19:24:37;;;;;;;11.75;7.97;;;;;;;;;;5092573;28;20194;-63
2021/10/28 19:27:05;;;;;;;10.45;7.32;;;;;;;;;;5092120;28;20643;-63
2021/10/28 19:29:36;;;;;;;9.90;7.43;;;;;;;;;;5092960;28;20232;-64
2021/10/28 19:32:07;;;;;;;7.72;6.70;;;;;;;;;;5099844;28;20212;-64
2021/10/28 19:34:38;;;;;;;9.95;7.13;;;;;;;;;;5112104;27;20181;-63
2021/10/28 19:37:11;;;;;;;9.27;7.40;;;;;;;;;;5101785;27;20177;-63
2021/10/28 19:45:15;;;;;;;13.63;10.40;;;;;;;;;;5099115;28;20647;-63
2021/10/28 19:47:43;;;;;;;11.35;8.93;;;;;;;;;;5107771;28;20208;-64
2021/10/28 19:50:13;;;;;;;13.00;10.38;;;;;;;;;;5109615;28;20209;-63
2021/10/28 19:52:40;;;;;;;13.30;10.98;;;;;;;;;;5110445;28;20196;-63
2021/10/28 19:55:08;;;;;;;20.58;11.90;;;;;;;;;;5108894;28;20181;-64
2021/10/28 19:57:37;;;;;;;15.55;12.10;;;;;;;;;;5110109;28;20276;-63
2021/10/28 20:00:13;;;;;;;14.05;9.88;;;;;;;;;;5109781;28;20189;-65
2021/10/28 20:03:04;;;;;;;16.65;10.45;;;;;;;;;;5109782;28;20198;-63
2021/10/28 20:05:38;;;;;;;13.32;9.18;;;;;;;;;;5109172;28;20608;-63
2021/10/28 20:08:25;;;;;;;16.20;11.20;;;;;;;;;;5110302;28;20279;-64
2021/10/28 20:22:01;;;;;;;16.90;9.30;;;;;;;;;;5108364;28;20212;-63
2021/10/28 20:24:28;;;;;;;11.35;8.95;;;;;;;;;;5109719;28;20192;-64
2021/10/28 20:26:55;;;;;;;19.73;10.77;;;;;;;;;;5110291;28;20694;-64
2021/10/28 20:29:22;;;;;;;13.30;9.75;;;;;;;;;;5110105;28;20759;-64
2021/10/28 20:31:51;;;;;;;15.68;10.48;;;;;;;;;;5110429;28;20626;-63
2021/10/28 20:34:27;;;;;;;19.05;9.68;;;;;;;;;;5109413;28;20271;-64
2021/10/28 20:37:08;;;;;;;15.77;12.13;;;;;;;;;;5111756;28;20197;-63
2021/10/28 20:39:38;;;;;;;10.75;7.97;;;;;;;;;;5109844;28;20196;-63
2021/10/28 20:42:06;;;;;;;8.57;6.70;;;;;;;;;;5111036;28;20190;-63
2021/10/28 20:44:33;;;;;;;13.70;7.97;;;;;;;;;;5112527;28;20196;-63
2021/10/28 20:47:00;;;;;;;14.75;7.68;;;;;;;;;;5113285;28;20185;-63
2021/10/28 20:49:28;;;;;;;9.82;7.82;;;;;;;;;;5113094;28;20278;-63
2021/10/28 20:51:55;;;;;;;12.77;8.80;;;;;;;;;;5113197;28;20220;-63
2021/10/28 20:54:23;;;;;;;10.68;7.57;;;;;;;;;;5113104;28;20260;-63
2021/10/28 20:56:52;;;;;;;18.63;8.07;;;;;;;;;;5100394;28;20768;-64
2021/10/28 20:59:20;;;;;;;11.77;8.43;;;;;;;;;;5113676;28;20197;-63
2021/10/28 21:01:48;;;;;;;10.32;8.40;;;;;;;;;;5113239;28;20188;-63
2021/10/28 21:04:15;;;;;;;17.55;10.20;;;;;;;;;;5113000;28;20281;-63
2021/10/28 21:06:42;;;;;;;11.05;7.30;;;;;;;;;;5113362;28;20238;-67
2021/10/28 21:09:09;;;;;;;12.68;7.78;;;;;;;;;;5113477;28;20223;-64
2021/10/28 21:11:38;;;;;;;11.70;6.60;;;;;;;;;;5113355;28;20216;-63
2021/10/28 21:14:07;;;;;;;12.95;7.13;;;;;;;;;;5113085;28;20177;-63
2021/10/28 21:16:35;;;;;;;7.93;5.68;;;;;;;;;;5112963;28;20219;-63
2021/10/28 21:19:05;;;;;;;11.55;7.13;;;;;;;;;;5113627;28;20193;-63
2021/10/28 21:21:33;;;;;;;14.10;7.72;;;;;;;;;;5112577;28;20528;-65
2021/10/28 21:24:01;;;;;;;10.68;7.40;;;;;;;;;;5109508;28;20201;-63
2021/10/28 21:26:29;;;;;;;13.63;8.20;;;;;;;;;;5112887;28;20185;-63
2021/10/28 21:28:56;;;;;;;16.23;9.70;;;;;;;;;;5112576;28;20184;-64
2021/10/28 21:31:24;;;;;;;19.38;9.52;;;;;;;;;;5108503;28;20216;-64
2021/10/28 21:33:52;;;;;;;11.60;8.23;;;;;;;;;;5112830;28;20216;-63
2021/10/28 21:36:19;;;;;;;12.27;9.07;;;;;;;;;;5112795;28;20227;-63
2021/10/28 21:38:47;;;;;;;10.50;7.25;;;;;;;;;;5111920;28;20196;-64
2021/10/28 21:41:14;;;;;;;8.38;6.03;;;;;;;;;;5112124;28;20192;-63
2021/10/28 21:43:42;;;;;;;8.65;6.80;;;;;;;;;;5112153;28;20193;-63
2021/10/28 21:46:09;;;;;;;13.30;7.25;;;;;;;;;;5115266;27;20245;-63
2021/10/28 21:48:38;;;;;;;10.48;7.13;;;;;;;;;;5111651;28;20193;-64
2021/10/28 21:51:05;;;;;;;11.38;7.20;;;;;;;;;;5112189;28;20740;-63
2021/10/28 21:53:37;;;;;;;8.50;6.55;;;;;;;;;;5112541;27;20279;-63
2021/10/28 21:56:10;;;;;;;8.38;7.30;;;;;;;;;;5111581;28;20584;-63
2021/10/28 21:58:50;;;;;;;12.23;6.57;;;;;;;;;;5112352;28;20228;-63
2021/10/28 22:01:23;;;;;;;8.85;6.22;;;;;;;;;;5112035;28;20265;-63
2021/10/28 22:25:52;;;;;;;9.70;7.00;;;;;;;;;;5111493;27;20203;-63
2021/10/28 22:28:20;;;;;;;7.90;6.88;;;;;;;;;;5094011;27;20198;-65
2021/10/28 22:30:48;;;;;;;8.15;6.13;;;;;;;;;;5094179;27;20242;-64
2021/10/28 22:33:15;;;;;;;12.38;5.75;;;;;;;;;;5112976;27;20200;-63
2021/10/28 22:35:48;;;;;;;9.45;6.68;;;;;;;;;;5111288;28;20216;-63
2021/10/28 22:38:17;;;;;;;7.18;5.80;;;;;;;;;;5101564;27;20189;-64
2021/10/28 22:40:50;;;;;;;9.23;6.03;;;;;;;;;;5102854;27;20196;-62
2021/10/28 22:43:21;;;;;;;7.20;6.10;;;;;;;;;;5108871;28;20196;-66
2021/10/28 22:45:49;;;;;;;9.27;6.20;;;;;;;;;;5103313;27;20192;-64
2021/10/28 22:48:19;;;;;;;9.40;6.88;;;;;;;;;;5093101;28;20648;-63
2021/10/28 22:50:48;;;;;;;9.50;5.75;;;;;;;;;;5097832;27;20224;-64
2021/10/28 22:53:18;;;;;;;9.38;5.43;;;;;;;;;;5107321;28;20291;-63
2021/10/28 22:55:46;;;;;;;8.10;5.93;;;;;;;;;;5110935;27;20195;-63
2021/10/28 22:58:20;;;;;;;9.27;5.80;;;;;;;;;;5093141;28;20198;-64
2021/10/28 23:01:01;;;;;;;8.85;6.05;;;;;;;;;;5109822;27;20192;-63
2021/10/28 23:06:42;;;;;;;9.68;6.28;;;;;;;;;;5096706;27;20189;-63
2021/10/28 23:23:05;;;;;;;8.65;4.90;;;;;;;;;;5100598;28;20219;-64